M I D A S
Marine Information and Data Acquisition System
Tripno 2204 of the Zeeleeuw from 2011-10-24 11:38:50 to 2011-10-24 13:53:11
Back to CruiseResearch ActivitiesStationsMapUnderway DataData graphs

EquipmentUnitsComments
TimeDGPSUTC
LatitudeDGPSDM.mWGS84
LongitudeDGPSDM.mWGS84
SpeedMeteo Stationm/sRelative wind speed
DirectionMeteo StationdegRelative wind direction
TemperatureMeteo Stationdeg CelciusAir temperature
PressureMeteo StationPaAtmospheric pressure
HumidityMeteo Station%Relative humidity
Missing or incorrect values are displayed as -999
Metereological data collected by the RV Zeeleeuw from 2011-10-24 07:16:37 to 2011-10-24 14:01:22
Time Latitude Longitude Speed Direction Temperature Pressure Humidity
2011-10-24 07:17 51°13.632 2°56.017 -999 -999 -999 -999 -999
2011-10-24 07:18 51°13.632 2°56.017 -999 -999 -999 -999 -999
2011-10-24 07:19 51°13.633 2°56.017 -999 -999 -999 -999 -999
2011-10-24 07:20 51°13.632 2°56.017 -999 -999 -999 -999 -999
2011-10-24 07:21 51°13.632 2°56.017 -999 -999 -999 -999 -999
2011-10-24 07:22 51°13.633 2°56.017 -999 -999 -999 -999 -999
2011-10-24 07:23 51°13.633 2°56.016 -999 -999 -999 -999 -999
2011-10-24 07:24 51°13.635 2°56.016 -999 -999 -999 -999 -999
2011-10-24 07:25 51°13.635 2°56.016 -999 -999 -999 -999 -999
2011-10-24 07:26 51°13.632 2°56.019 -999 -999 -999 -999 -999
2011-10-24 07:27 51°13.632 2°56.02 -999 -999 -999 -999 -999
2011-10-24 07:28 51°13.632 2°56.019 -999 -999 -999 -999 -999
2011-10-24 07:29 51°13.631 2°56.019 -999 -999 -999 -999 -999
2011-10-24 07:30 51°13.631 2°56.019 3.7 329 7.5 100270 47
2011-10-24 07:31 51°13.631 2°56.02 4.3 325 7.5 100280 47
2011-10-24 07:32 51°13.631 2°56.021 5.4 328 7.6 100270 45
2011-10-24 07:33 51°13.631 2°56.02 6.2 325 7.6 100270 47
2011-10-24 07:34 51°13.631 2°56.02 4.8 333 7.6 100270 48
2011-10-24 07:35 51°13.632 2°56.02 6.7 324 7.6 100280 47
2011-10-24 07:36 51°13.633 2°56.02 3.9 331 7.7 100270 47
2011-10-24 07:37 51°13.632 2°56.019 4.2 316 7.7 100270 48
2011-10-24 07:38 51°13.633 2°56.021 7.2 325 7.7 100270 47
2011-10-24 07:39 51°13.633 2°56.02 6.5 330 7.7 100270 48
2011-10-24 07:40 51°13.633 2°56.022 6.1 326 7.7 100270 45
2011-10-24 07:41 51°13.633 2°56.021 5.3 320 7.7 100270 48
2011-10-24 07:42 51°13.633 2°56.019 4.7 327 7.7 100270 48
2011-10-24 07:43 51°13.632 2°56.019 5 326 7.8 100260 47
2011-10-24 07:44 51°13.63 2°56.018 7.5 340 7.8 100260 47
2011-10-24 07:45 51°13.637 2°55.981 6.2 345 7.8 100260 47
2011-10-24 07:46 51°13.651 2°55.907 5.5 330 7.8 100250 48
2011-10-24 07:47 51°13.673 2°55.82 4.5 335 7.8 100250 47
2011-10-24 07:48 51°13.689 2°55.742 5.4 349 7.9 100250 46
2011-10-24 07:49 51°13.71 2°55.753 6.5 20 7.9 100240 47
2011-10-24 07:50 51°13.703 2°55.743 7.2 23 7.9 100250 48
2011-10-24 07:51 51°13.727 2°55.721 4.9 42 7.9 100250 48
2011-10-24 07:51 51°13.738 2°55.712 3.6 27 7.9 100250 47
2011-10-24 07:53 51°13.738 2°55.712 5.5 25 7.9 100250 48
2011-10-24 07:54 51°13.738 2°55.712 2.5 26 7.9 100250 47
2011-10-24 07:55 51°13.738 2°55.712 4.8 34 7.9 100250 48
2011-10-24 07:56 51°14.359 2°55.225 0.3 16 7.9 100250 45
2011-10-24 07:57 51°14.485 2°55.107 3.5 35 7.9 100250 47
2011-10-24 07:58 51°14.611 2°54.999 3.6 38 7.9 100240 47
2011-10-24 07:59 51°14.733 2°54.867 3.9 36 7.9 100250 48
2011-10-24 08:00 51°14.849 2°54.723 5.8 35 7.9 100250 48
2011-10-24 08:01 51°14.961 2°54.585 4 44 7.9 100250 48
2011-10-24 08:02 51°15.038 2°54.485 5.1 19 7.9 100260 48
2011-10-24 08:03 51°15.103 2°54.409 6.6 27 8 100250 48
2011-10-24 08:04 51°15.165 2°54.347 5.4 28 8 100250 48
2011-10-24 08:05 51°15.224 2°54.289 7.1 43 8 100250 50
2011-10-24 08:06 51°15.272 2°54.22 6.2 20 7.9 100250 48
2011-10-24 08:07 51°15.312 2°54.143 2.6 21 7.9 100250 49
2011-10-24 08:08 51°15.354 2°54.072 7.1 40 8 100250 49
2011-10-24 08:09 51°15.414 2°54.037 7.7 43 8 100240 49
2011-10-24 08:10 51°15.477 2°53.988 6.4 40 7.8 100240 48
2011-10-24 08:11 51°15.545 2°53.941 7.6 21 7.8 100240 48
2011-10-24 08:12 51°15.611 2°53.885 6.4 43 7.8 100240 48
2011-10-24 08:13 51°15.669 2°53.819 6.3 25 7.9 100240 50
2011-10-24 08:14 51°15.725 2°53.759 7.7 37 7.8 100240 50
2011-10-24 08:15 51°15.793 2°53.752 8.8 19 7.8 100230 49
2011-10-24 08:16 51°15.844 2°53.813 10.5 359 7.9 100210 50
2011-10-24 08:17 51°15.874 2°53.906 8.9 349 7.8 100210 49
2011-10-24 08:18 51°15.908 2°54.003 8.7 354 7.7 100200 49
2011-10-24 08:19 51°15.943 2°54.096 8.9 356 7.8 100210 50
2011-10-24 08:20 51°15.98 2°54.188 8.4 1 7.7 100220 48
2011-10-24 08:21 51°16.014 2°54.275 9.6 357 7.7 100220 49
2011-10-24 08:22 51°16.039 2°54.358 9.9 349 7.6 100220 49
2011-10-24 08:23 51°16.055 2°54.439 8.9 343 7.7 100220 50
2011-10-24 08:24 51°16.07 2°54.519 8.6 359 7.7 100220 50
2011-10-24 08:25 51°16.106 2°54.597 8.1 6 7.7 100210 50
2011-10-24 08:26 51°16.142 2°54.684 11.3 358 7.8 100220 49
2011-10-24 08:27 51°16.177 2°54.776 8.8 1 7.8 100220 50
2011-10-24 08:28 51°16.214 2°54.87 7.9 2 7.8 100220 49
2011-10-24 08:29 51°16.252 2°54.967 11.4 359 7.8 100220 49
2011-10-24 08:30 51°16.29 2°55.063 6.8 359 7.8 100220 49
2011-10-24 08:31 51°16.329 2°55.162 10.5 357 7.8 100220 49
2011-10-24 08:32 51°16.369 2°55.26 9.7 -999 7.8 100220 48
2011-10-24 08:33 51°16.411 2°55.357 8.6 1 7.8 100220 49
2011-10-24 08:34 51°16.452 2°55.456 11.3 360 8.1 100220 50
2011-10-24 08:35 51°16.494 2°55.556 9.4 358 7.9 100220 49
2011-10-24 08:36 51°16.526 2°55.659 11.9 351 7.8 100220 46
2011-10-24 08:37 51°16.539 2°55.759 11.7 332 7.8 100220 49
2011-10-24 08:38 51°16.529 2°55.835 9.4 26 7.9 100220 49
2011-10-24 08:39 51°16.503 2°55.885 11 22 7.9 100220 49
2011-10-24 08:40 51°16.473 2°55.938 9.7 21 8 100210 48
2011-10-24 08:41 51°16.443 2°55.998 9.2 24 7.9 100220 48
2011-10-24 08:42 51°16.409 2°56.067 8.5 20 7.9 100220 48
2011-10-24 08:43 51°16.368 2°56.114 10.6 24 8 100220 48
2011-10-24 08:44 51°16.324 2°56.149 4.7 24 8 100220 47
2011-10-24 08:45 51°16.28 2°56.18 8.9 22 8.1 100220 49
2011-10-24 08:46 51°16.234 2°56.198 8.2 26 8.2 100230 48
2011-10-24 08:47 51°16.189 2°56.211 8.9 253 8.2 100230 49
2011-10-24 08:48 51°16.155 2°56.177 6 265 8.2 100230 48
2011-10-24 08:49 51°16.113 2°56.128 9.6 258 8.2 100220 48
2011-10-24 08:50 51°16.076 2°56.056 7 260 8.2 100230 48
2011-10-24 08:51 51°16.033 2°55.987 4.5 264 8.3 100230 49
2011-10-24 08:52 51°16.008 2°55.897 6.5 264 8.2 100220 47
2011-10-24 08:53 51°15.977 2°55.815 5.2 268 8.3 100230 49
2011-10-24 08:54 51°15.94 2°55.737 4.7 261 8.4 100230 48
2011-10-24 08:55 51°15.907 2°55.655 8.6 258 8.5 100230 49
2011-10-24 08:56 51°15.873 2°55.574 7.9 256 8.5 100230 48
2011-10-24 08:57 51°15.839 2°55.488 6.2 262 8.6 100230 49
2011-10-24 08:58 51°15.804 2°55.403 7.6 261 8.6 100220 49
2011-10-24 08:59 51°15.768 2°55.317 7.3 258 8.6 100220 48
2011-10-24 09:00 51°15.735 2°55.226 7.1 257 8.7 100220 46
2011-10-24 09:01 51°15.702 2°55.137 7.8 259 8.7 100210 48
2011-10-24 09:02 51°15.672 2°55.05 5.6 263 8.7 100220 48
2011-10-24 09:03 51°15.642 2°54.962 7 257 8.9 100210 49
2011-10-24 09:04 51°15.613 2°54.874 4.9 265 8.9 100210 48
2011-10-24 09:05 51°15.581 2°54.79 6 263 9 100210 48
2011-10-24 09:06 51°15.549 2°54.706 9.6 261 8.9 100210 47
2011-10-24 09:07 51°15.517 2°54.623 4.4 256 8.9 100220 48
2011-10-24 09:08 51°15.487 2°54.538 9.4 260 8.9 100210 46
2011-10-24 09:09 51°15.456 2°54.453 7.6 259 9 100210 48
2011-10-24 09:10 51°15.42 2°54.376 8.7 257 9 100210 47
2011-10-24 09:11 51°15.383 2°54.299 11.6 262 9 100210 47
2011-10-24 09:12 51°15.349 2°54.216 5.4 264 9 100200 47
2011-10-24 09:13 51°15.316 2°54.131 5.5 265 9 100200 47
2011-10-24 09:14 51°15.284 2°54.043 6.6 263 9.1 100190 48
2011-10-24 09:15 51°15.246 2°53.961 8.3 259 9.1 100190 47
2011-10-24 09:16 51°15.21 2°53.879 6.4 262 9.1 100190 46
2011-10-24 09:17 51°15.179 2°53.79 6.7 263 9.1 100190 47
2011-10-24 09:18 51°15.147 2°53.7 6.3 266 9.1 100170 48
2011-10-24 09:19 51°15.114 2°53.613 7.6 266 9.1 100180 47
2011-10-24 09:20 51°15.078 2°53.529 6.8 263 9.1 100180 47
2011-10-24 09:21 51°15.045 2°53.442 7.8 261 9.2 100180 47
2011-10-24 09:22 51°15.015 2°53.351 7.7 263 9.3 100180 48
2011-10-24 09:23 51°14.983 2°53.269 7.8 264 9.3 100160 46
2011-10-24 09:24 51°14.951 2°53.195 5.2 263 9.4 100160 46
2011-10-24 09:25 51°14.922 2°53.118 6 264 9.4 100160 47
2011-10-24 09:26 51°14.895 2°53.04 8.9 260 9.4 100160 47
2011-10-24 09:27 51°14.866 2°52.97 9.9 261 9.3 100160 46
2011-10-24 09:28 51°14.836 2°52.899 9.5 259 9.3 100170 47
2011-10-24 09:29 51°14.808 2°52.824 5.7 268 9.4 100170 47
2011-10-24 09:30 51°14.78 2°52.749 6 266 9.5 100170 48
2011-10-24 09:31 51°14.75 2°52.676 9.9 261 9.4 100160 47
2011-10-24 09:32 51°14.719 2°52.605 6.2 268 9.4 100160 45
2011-10-24 09:33 51°14.689 2°52.532 8.9 262 9.4 100170 47
2011-10-24 09:34 51°14.662 2°52.454 5.2 268 9.4 100170 47
2011-10-24 09:35 51°14.636 2°52.374 5.5 263 9.3 100170 46
2011-10-24 09:36 51°14.608 2°52.298 8.5 258 9.3 100170 47
2011-10-24 09:37 51°14.58 2°52.222 5.3 265 9.4 100160 47
2011-10-24 09:38 51°14.548 2°52.149 6.9 261 9.4 100160 47
2011-10-24 09:39 51°14.517 2°52.076 6.4 266 9.5 100170 48
2011-10-24 09:40 51°14.494 2°51.995 5.7 267 9.5 100160 45
2011-10-24 09:41 51°14.474 2°51.907 5.3 266 9.4 100160 46
2011-10-24 09:42 51°14.49 2°51.763 1.1 43 9.4 100160 47
2011-10-24 09:43 51°14.633 2°51.825 9.5 350 9.4 100140 47
2011-10-24 09:44 51°14.694 2°52.14 13.3 341 9.4 100130 47
2011-10-24 09:45 51°14.702 2°52.486 16.1 341 9.5 100120 47
2011-10-24 09:46 51°14.714 2°52.83 14 348 9.5 100100 46
2011-10-24 09:47 51°14.759 2°53.172 11.3 342 9.5 100110 46
2011-10-24 09:48 51°14.811 2°53.513 14.1 343 9.6 100110 45
2011-10-24 09:49 51°14.852 2°53.855 16.1 344 9.6 100110 46
2011-10-24 09:50 51°14.838 2°54.194 15.4 335 9.6 100110 46
2011-10-24 09:51 51°14.782 2°54.499 12.1 330 9.7 100110 47
2011-10-24 09:52 51°14.697 2°54.776 16.5 329 9.7 100100 46
2011-10-24 09:53 51°14.573 2°54.996 15.9 323 9.7 100100 45
2011-10-24 09:54 51°14.426 2°55.15 12.1 324 9.7 100100 45
2011-10-24 09:55 51°14.304 2°55.268 11.2 326 9.8 100120 45
2011-10-24 09:56 51°14.19 2°55.371 11.9 327 9.9 100120 44
2011-10-24 09:57 51°14.101 2°55.434 10.3 318 9.9 100110 45
2011-10-24 09:58 51°14.016 2°55.491 10.7 21 9.9 100110 45
2011-10-24 09:59 51°13.929 2°55.549 11.4 324 9.9 100130 45
2011-10-24 10:00 51°13.845 2°55.609 7.3 322 10 100120 45
2011-10-24 10:01 51°13.769 2°55.687 7.9 329 10.1 100140 45
2011-10-24 10:01 51°13.766 2°55.692 7.7 326 10.1 100130 45
2011-10-24 10:03 51°13.683 2°55.848 6.8 332 10.1 100130 44
2011-10-24 10:04 51°13.656 2°55.912 7.8 334 10.1 100140 44
2011-10-24 10:05 51°13.642 2°55.981 8.4 347 10.1 100130 44
2011-10-24 10:06 51°13.638 2°56.017 5 328 10.2 100140 44
2011-10-24 10:07 51°13.636 2°56.018 5.3 336 10.3 100140 44
2011-10-24 10:08 51°13.637 2°56.018 4.6 332 10.3 100140 44
2011-10-24 10:09 51°13.637 2°56.018 6.6 327 10.4 100140 44
2011-10-24 10:10 51°13.637 2°56.019 5.6 326 10.5 100140 44
2011-10-24 10:11 51°13.636 2°56.019 4.6 325 10.5 100140 44
2011-10-24 10:12 51°13.635 2°56.02 5 329 10.6 100140 42
2011-10-24 10:13 51°13.635 2°56.02 5.2 338 10.6 100140 43
2011-10-24 10:14 51°13.635 2°56.021 4.9 333 10.6 100140 44
2011-10-24 10:15 51°13.635 2°56.021 5.5 323 10.7 100140 44
2011-10-24 10:16 51°13.635 2°56.02 6.5 323 10.7 100140 44
2011-10-24 10:17 51°13.635 2°56.02 7.9 326 10.8 100140 44
2011-10-24 10:18 51°13.636 2°56.019 5.8 330 10.8 100140 43
2011-10-24 10:19 51°13.637 2°56.02 5.5 324 10.8 100140 44
2011-10-24 10:20 51°13.637 2°56.019 4.4 334 10.8 100130 42
2011-10-24 10:21 51°13.637 2°56.019 6.5 328 10.9 100140 43
2011-10-24 10:22 51°13.637 2°56.019 3.7 333 10.9 100140 43
2011-10-24 10:23 51°13.636 2°56.019 5.6 329 10.9 100140 43
2011-10-24 10:24 51°13.636 2°56.018 3 329 10.9 100140 44
2011-10-24 10:25 51°13.635 2°56.018 5.1 336 10.9 100140 44
2011-10-24 10:26 51°13.635 2°56.019 3.6 328 11 100140 43
2011-10-24 10:27 51°13.635 2°56.02 4.8 337 11 100140 43
2011-10-24 10:28 51°13.635 2°56.02 5 329 11.1 100140 43
2011-10-24 10:29 51°13.634 2°56.019 5.8 329 11 100140 43
2011-10-24 10:30 51°13.635 2°56.019 4.1 328 11 100150 43
2011-10-24 10:31 51°13.634 2°56.019 5.8 331 11.1 100140 43
2011-10-24 10:32 51°13.635 2°56.02 6 327 11.2 100140 43
2011-10-24 10:33 51°13.635 2°56.02 3.6 338 11.3 100140 43
2011-10-24 10:34 51°13.636 2°56.021 3.2 335 11.4 100140 44
2011-10-24 10:35 51°13.635 2°56.022 4 331 11.4 100140 43
2011-10-24 10:36 51°13.635 2°56.022 4.7 327 11.5 100140 42
2011-10-24 10:37 51°13.635 2°56.021 5.7 340 11.5 100140 43
2011-10-24 10:38 51°13.634 2°56.02 6.3 343 11.5 100140 43
2011-10-24 10:39 51°13.634 2°56.021 7.5 338 11.4 100140 44
2011-10-24 10:40 51°13.634 2°56.021 6.7 340 11.3 100140 43
2011-10-24 10:41 51°13.635 2°56.021 5.1 341 11.3 100130 43
2011-10-24 10:42 51°13.635 2°56.019 2.5 344 11.4 100130 43
2011-10-24 10:43 51°13.635 2°56.019 3.7 325 11.4 100130 44
2011-10-24 10:44 51°13.636 2°56.019 4.3 333 11.5 100130 42
2011-10-24 10:45 51°13.636 2°56.019 3.6 329 11.5 100130 44
2011-10-24 10:46 51°13.636 2°56.018 6.1 344 11.5 100120 44
2011-10-24 10:47 51°13.638 2°56.019 6.3 332 11.5 100120 43
2011-10-24 10:48 51°13.636 2°56.019 4.2 331 11.5 100120 43
2011-10-24 10:49 51°13.637 2°56.019 5.5 337 11.6 100120 42
2011-10-24 10:50 51°13.638 2°56.019 4.3 324 11.5 100130 43
2011-10-24 10:51 51°13.636 2°56.019 3.7 335 11.6 100120 42
2011-10-24 10:52 51°13.638 2°56.019 7 335 11.6 100130 42
2011-10-24 10:53 51°13.637 2°56.019 9.2 342 11.6 100120 43
2011-10-24 10:54 51°13.639 2°56.018 6.5 337 11.5 100120 42
2011-10-24 10:55 51°13.639 2°56.019 10.5 344 11.5 100130 43
2011-10-24 10:56 51°13.637 2°56.019 5.4 332 11.5 100120 44
2011-10-24 10:57 51°13.638 2°56.019 4.2 344 11.6 100120 44
2011-10-24 10:58 51°13.638 2°56.018 3.7 352 11.7 100120 43
2011-10-24 10:59 51°13.638 2°56.019 6.1 342 11.8 100120 44
2011-10-24 11:00 51°13.638 2°56.019 7.5 341 11.8 100120 42
2011-10-24 11:01 51°13.638 2°56.019 4.1 331 11.7 100120 42
2011-10-24 11:02 51°13.638 2°56.019 3.6 333 11.8 100120 43
2011-10-24 11:03 51°13.638 2°56.019 5.6 339 11.9 100120 42
2011-10-24 11:04 51°13.639 2°56.018 7.3 345 11.8 100110 43
2011-10-24 11:05 51°13.637 2°56.018 8.6 340 11.7 100120 43
2011-10-24 11:06 51°13.637 2°56.019 6.9 339 11.7 100110 43
2011-10-24 11:07 51°13.637 2°56.019 5 331 11.7 100120 43
2011-10-24 11:08 51°13.636 2°56.018 5.6 321 11.8 100120 43
2011-10-24 11:09 51°13.636 2°56.019 5.9 345 11.8 100120 43
2011-10-24 11:10 51°13.637 2°56.019 7.4 327 11.9 100120 43
2011-10-24 11:11 51°13.635 2°56.019 5.9 335 12 100120 43
2011-10-24 11:12 51°13.636 2°56.02 5.1 337 12 100110 42
2011-10-24 11:13 51°13.637 2°56.02 5.5 329 12 100110 43
2011-10-24 11:14 51°13.638 2°56.02 6.2 327 12.1 100110 42
2011-10-24 11:15 51°13.638 2°56.02 5.8 329 12 100110 43
2011-10-24 11:16 51°13.637 2°56.02 7.4 335 12 100110 42
2011-10-24 11:17 51°13.636 2°56.02 6.3 340 12 100110 42
2011-10-24 11:18 51°13.636 2°56.02 5.9 335 12 100110 42
2011-10-24 11:19 51°13.636 2°56.02 5.6 333 12.1 100110 43
2011-10-24 11:20 51°13.636 2°56.02 5.1 318 12.2 100110 43
2011-10-24 11:21 51°13.636 2°56.02 8 333 12.2 100100 42
2011-10-24 11:22 51°13.636 2°56.019 7.5 335 12.1 100100 42
2011-10-24 11:23 51°13.636 2°56.02 6.6 318 12.1 100100 43
2011-10-24 11:24 51°13.635 2°56.019 3 333 12.2 100100 43
2011-10-24 11:25 51°13.636 2°56.02 4.9 337 12.3 100100 43
2011-10-24 11:26 51°13.636 2°56.019 5.1 349 12.3 100090 43
2011-10-24 11:27 51°13.636 2°56.02 6.3 319 12.4 100090 42
2011-10-24 11:28 51°13.636 2°56.019 4.9 325 12.4 100080 41
2011-10-24 11:29 51°13.637 2°56.02 4.9 331 12.3 100080 42
2011-10-24 11:30 51°13.637 2°56.02 5.9 338 12.4 100080 42
2011-10-24 11:31 51°13.638 2°56.021 3.7 333 12.3 100080 43
2011-10-24 11:32 51°13.638 2°56.021 4.4 338 12.5 100070 43
2011-10-24 11:33 51°13.638 2°56.02 5.7 336 12.5 100080 42
2011-10-24 11:34 51°13.638 2°56.02 6.9 331 12.5 100070 42
2011-10-24 11:35 51°13.637 2°56.02 6.3 334 12.5 100070 42
2011-10-24 11:36 51°13.636 2°56.019 5.9 332 12.5 100070 42
2011-10-24 11:37 51°13.635 2°56.019 6.8 337 12.6 100060 42
2011-10-24 11:38 51°13.635 2°56.013 4.9 344 12.5 100060 42
2011-10-24 11:39 51°13.646 2°55.958 5.5 354 12.4 100050 41
2011-10-24 11:40 51°13.652 2°55.941 5.4 335 12.4 100050 43
2011-10-24 11:41 51°13.678 2°55.868 6.9 344 12.5 100050 43
2011-10-24 11:42 51°13.696 2°55.771 8.4 354 12.5 100040 42
2011-10-24 11:43 51°13.7 2°55.724 7.3 16 12.4 100030 42
2011-10-24 11:44 51°13.728 2°55.717 6.5 24 12.4 100030 42
2011-10-24 11:45 51°13.82 2°55.644 4.2 26 12.4 100040 41
2011-10-24 11:46 51°13.95 2°55.556 5.3 31 12.5 100040 43
2011-10-24 11:47 51°14.093 2°55.453 5.8 23 12.5 100030 42
2011-10-24 11:48 51°14.246 2°55.322 2.7 41 12.5 100030 40
2011-10-24 11:49 51°14.388 2°55.188 3.6 22 12.5 100030 41
2011-10-24 11:50 51°14.528 2°55.055 4.3 30 12.5 100030 42
2011-10-24 11:51 51°14.672 2°54.911 3.1 41 12.6 100020 43
2011-10-24 11:52 51°14.813 2°54.766 4.5 33 12.6 100020 42
2011-10-24 11:53 51°14.945 2°54.612 3.7 40 12.6 100020 43
2011-10-24 11:54 51°15.063 2°54.467 6 19 12.5 100010 42
2011-10-24 11:55 51°15.135 2°54.38 7.4 27 12.5 100010 42
2011-10-24 11:56 51°15.192 2°54.316 6.8 22 12.4 100010 41
2011-10-24 11:57 51°15.245 2°54.26 7.3 22 12.3 100010 43
2011-10-24 11:58 51°15.298 2°54.212 7.4 20 12.3 100000 43
2011-10-24 11:59 51°15.348 2°54.162 5.9 23 12.3 100000 42
2011-10-24 12:00 51°15.396 2°54.112 5.6 23 12.3 100010 42
2011-10-24 12:01 51°15.44 2°54.056 4.6 22 12.7 100000 43
2011-10-24 12:02 51°15.482 2°53.997 5.2 22 12.8 100000 44
2011-10-24 12:03 51°15.524 2°53.939 8.3 23 12.7 99990 42
2011-10-24 12:04 51°15.567 2°53.881 4.7 28 12.7 99990 41
2011-10-24 12:05 51°15.605 2°53.817 5.5 20 12.8 99990 42
2011-10-24 12:06 51°15.642 2°53.752 5.5 28 12.8 99990 42
2011-10-24 12:07 51°15.683 2°53.696 7.7 43 12.9 99980 43
2011-10-24 12:08 51°15.732 2°53.681 7.3 34 12.8 99970 44
2011-10-24 12:09 51°15.775 2°53.703 8.1 19 12.7 99970 44
2011-10-24 12:10 51°15.808 2°53.757 8.8 350 12.7 99970 44
2011-10-24 12:11 51°15.829 2°53.847 8.6 343 12.6 99950 43
2011-10-24 12:12 51°15.861 2°53.945 13 357 12.5 99950 43
2011-10-24 12:13 51°15.897 2°54.033 10.2 351 12.4 99950 44
2011-10-24 12:14 51°15.926 2°54.119 8.9 352 12.4 99940 44
2011-10-24 12:15 51°15.953 2°54.205 7.8 352 12.5 99940 44
2011-10-24 12:16 51°15.984 2°54.289 10.3 353 12.5 99930 44
2011-10-24 12:17 51°16.019 2°54.371 11.3 353 12.4 99930 44
2011-10-24 12:18 51°16.051 2°54.454 11.5 356 12.5 99930 44
2011-10-24 12:19 51°16.084 2°54.535 12.8 356 12.4 99930 43
2011-10-24 12:20 51°16.113 2°54.617 9.2 352 12.5 99930 42
2011-10-24 12:21 51°16.144 2°54.7 10.7 352 12.5 99930 43
2011-10-24 12:22 51°16.173 2°54.783 9.4 353 12.5 99930 43
2011-10-24 12:23 51°16.207 2°54.863 15.4 356 12.5 99930 43
2011-10-24 12:24 51°16.241 2°54.943 9.3 352 12.5 99930 43
2011-10-24 12:25 51°16.271 2°55.024 8.8 349 12.5 99920 43
2011-10-24 12:26 51°16.303 2°55.105 9.6 352 12.5 99930 43
2011-10-24 12:27 51°16.336 2°55.187 12.5 357 12.5 99920 44
2011-10-24 12:28 51°16.369 2°55.267 11.9 357 12.5 99910 41
2011-10-24 12:29 51°16.401 2°55.35 9 355 12.6 99920 44
2011-10-24 12:30 51°16.432 2°55.433 11.8 353 12.6 99910 44
2011-10-24 12:31 51°16.466 2°55.512 10.9 356 12.6 99910 43
2011-10-24 12:32 51°16.499 2°55.593 11.4 352 12.7 99910 44
2011-10-24 12:33 51°16.522 2°55.672 8.4 338 12.6 99910 43
2011-10-24 12:34 51°16.511 2°55.736 9.5 325 12.7 99910 44
2011-10-24 12:35 51°16.482 2°55.778 10.3 320 12.8 99900 43
2011-10-24 12:36 51°16.45 2°55.818 9.2 317 12.8 99920 41
2011-10-24 12:37 51°16.422 2°55.865 11.5 322 12.9 99900 42
2011-10-24 12:38 51°16.395 2°55.916 13.1 322 13 99900 42
2011-10-24 12:39 51°16.367 2°55.966 13.1 318 13 99900 43
2011-10-24 12:40 51°16.337 2°56.014 9.5 316 13.1 99890 42
2011-10-24 12:41 51°16.302 2°56.063 9.8 317 13.1 99890 41
2011-10-24 12:42 51°16.254 2°56.079 5.5 22 13.1 99870 42
2011-10-24 12:43 51°16.199 2°56.076 9.7 26 13.2 99870 42
2011-10-24 12:44 51°16.142 2°56.067 9.6 251 13.3 99870 40
2011-10-24 12:45 51°16.094 2°56.013 10 254 13.3 99890 42
2011-10-24 12:46 51°16.041 2°55.961 10.8 258 13.3 99880 42
2011-10-24 12:47 51°15.997 2°55.878 7.3 263 13.3 99890 42
2011-10-24 12:48 51°15.95 2°55.795 7.7 262 13.3 99890 42
2011-10-24 12:49 51°15.917 2°55.696 7.5 264 13.3 99890 43
2011-10-24 12:50 51°15.879 2°55.605 5.4 264 13.3 99880 42
2011-10-24 12:51 51°15.841 2°55.524 5.5 265 13.3 99880 42
2011-10-24 12:52 51°15.808 2°55.438 9.6 260 13.3 99880 42
2011-10-24 12:53 51°15.777 2°55.355 7.5 262 13.3 99880 42
2011-10-24 12:54 51°15.747 2°55.27 5.4 264 13.3 99880 42
2011-10-24 12:55 51°15.717 2°55.184 7.1 263 13.4 99880 43
2011-10-24 12:56 51°15.685 2°55.1 6.9 263 13.4 99880 43
2011-10-24 12:57 51°15.654 2°55.013 5.8 264 13.4 99870 42
2011-10-24 12:58 51°15.625 2°54.925 8.5 262 13.4 99880 43
2011-10-24 12:59 51°15.593 2°54.841 5.2 263 13.4 99880 43
2011-10-24 13:00 51°15.561 2°54.755 8.4 263 13.5 99870 43
2011-10-24 13:01 51°15.528 2°54.673 7 265 13.4 99850 41
2011-10-24 13:02 51°15.494 2°54.603 12 262 13.4 99860 42
2011-10-24 13:03 51°15.465 2°54.534 8.7 264 13.4 99860 42
2011-10-24 13:04 51°15.437 2°54.461 4.8 266 13.4 99860 42
2011-10-24 13:05 51°15.408 2°54.391 6.2 264 13.5 99870 43
2011-10-24 13:06 51°15.382 2°54.317 6.3 265 13.4 99860 42
2011-10-24 13:07 51°15.354 2°54.246 10 260 13.5 99860 41
2011-10-24 13:08 51°15.324 2°54.173 8.4 263 13.5 99860 41
2011-10-24 13:09 51°15.295 2°54.097 6.2 267 13.5 99850 41
2011-10-24 13:10 51°15.267 2°54.018 9.5 261 13.5 99850 41
2011-10-24 13:11 51°15.237 2°53.941 10.1 261 13.6 99850 43
2011-10-24 13:12 51°15.21 2°53.861 6 265 13.6 99850 41
2011-10-24 13:13 51°15.181 2°53.784 7.7 266 13.6 99850 42
2011-10-24 13:14 51°15.151 2°53.708 7 262 13.6 99850 42
2011-10-24 13:15 51°15.122 2°53.63 7.6 263 13.6 99850 41
2011-10-24 13:16 51°15.095 2°53.55 9.4 261 13.6 99840 40
2011-10-24 13:17 51°15.063 2°53.478 7.4 263 13.7 99850 41
2011-10-24 13:18 51°15.033 2°53.401 6.7 262 13.7 99850 41
2011-10-24 13:19 51°15.001 2°53.326 7.7 259 13.7 99850 42
2011-10-24 13:20 51°14.969 2°53.247 5.6 267 13.7 99840 41
2011-10-24 13:21 51°14.939 2°53.165 6.6 265 13.7 99840 42
2011-10-24 13:22 51°14.907 2°53.086 8.2 265 13.7 99830 41
2011-10-24 13:23 51°14.875 2°53.01 8.4 265 13.7 99830 41
2011-10-24 13:24 51°14.844 2°52.932 6.3 266 13.7 99830 42
2011-10-24 13:25 51°14.815 2°52.851 7.6 265 13.7 99830 41
2011-10-24 13:26 51°14.784 2°52.773 8.8 261 13.7 99840 42
2011-10-24 13:27 51°14.752 2°52.697 9.1 260 13.7 99830 42
2011-10-24 13:28 51°14.72 2°52.618 4.3 265 13.7 99830 41
2011-10-24 13:29 51°14.695 2°52.53 5 265 13.8 99830 43
2011-10-24 13:30 51°14.666 2°52.447 7.6 263 13.8 99840 42
2011-10-24 13:31 51°14.634 2°52.366 7.1 263 13.8 99840 41
2011-10-24 13:32 51°14.603 2°52.285 6.1 263 13.9 99840 41
2011-10-24 13:33 51°14.568 2°52.208 8.2 263 13.9 99830 42
2011-10-24 13:34 51°14.536 2°52.129 7.3 262 13.9 99820 40
2011-10-24 13:35 51°14.514 2°52.038 7 28 14 99830 40
2011-10-24 13:36 51°14.494 2°51.944 5.8 269 14 99830 41
2011-10-24 13:37 51°14.486 2°51.84 4 23 14 99840 42
2011-10-24 13:38 51°14.554 2°51.796 7.7 9 14 99840 41
2011-10-24 13:39 51°14.591 2°51.955 13.2 341 13.9 99800 41
2011-10-24 13:40 51°14.625 2°52.238 15.9 346 13.9 99790 41
2011-10-24 13:41 51°14.653 2°52.537 13.6 340 13.9 99830 42
2011-10-24 13:42 51°14.68 2°52.838 12.9 345 14 99790 41
2011-10-24 13:43 51°14.707 2°53.139 17.9 345 14 99790 40
2011-10-24 13:44 51°14.729 2°53.44 19.2 342 14 99790 41
2011-10-24 13:45 51°14.747 2°53.736 13 345 14 99790 40
2011-10-24 13:46 51°14.758 2°54.043 7.7 337 14 99790 40
2011-10-24 13:47 51°14.732 2°54.338 10 340 14.1 99790 40
2011-10-24 13:48 51°14.675 2°54.62 20.6 326 14.2 99800 40
2011-10-24 13:49 51°14.586 2°54.879 15.6 331 14.2 99790 40
2011-10-24 13:50 51°14.451 2°55.08 14.5 322 14.3 99780 39
2011-10-24 13:51 51°14.299 2°55.252 12.9 326 14.4 99790 40
2011-10-24 13:52 51°14.174 2°55.379 10 325 14.5 99800 39
2011-10-24 13:53 51°14.06 2°55.464 10.8 320 14.6 99780 39
2011-10-24 13:54 51°13.948 2°55.538 10.3 325 14.6 99790 39
2011-10-24 13:55 51°13.839 2°55.616 9.3 317 14.6 99780 39
2011-10-24 13:56 51°13.776 2°55.687 11.8 329 14.7 99810 39
2011-10-24 13:57 51°13.718 2°55.785 10.7 332 14.6 99820 39
2011-10-24 13:58 51°13.67 2°55.881 8.6 333 14.6 99820 39
2011-10-24 13:59 51°13.643 2°55.96 10.6 336 14.6 99820 39
2011-10-24 14:00 51°13.638 2°56.012 7.8 330 14.6 99830 39